Time;durP1;ratioP1;P1;durP2;ratioP2;P2;SDS_P1;SDS_P2;PMS_P1;PMS_P2;Temp;Humidity;BMP_temperature;BMP_pressure;BME280_temperature;BME280_humidity;BME280_pressure;Samples;Min_cycle;Max_cycle;Signal;HPM_P1;HPM_P2
2023/09/25 00:01:26;;;;;;;3.40;1.80;;;12.10;99.90;;;;;;6071533;23;20148;-71
2023/09/25 00:03:52;;;;;;;2.43;1.70;;;12.10;99.90;;;;;;6069771;23;20180;-70
2023/09/25 00:06:18;;;;;;;3.27;2.10;;;12.10;99.90;;;;;;6071634;23;20133;-70
2023/09/25 00:08:45;;;;;;;5.47;1.80;;;12.10;99.90;;;;;;6071328;23;20221;-70
2023/09/25 00:11:10;;;;;;;2.03;1.23;;;12.10;99.90;;;;;;6071295;23;20383;-70
2023/09/25 00:13:36;;;;;;;1.80;1.47;;;12.20;99.90;;;;;;6071031;23;20381;-71
2023/09/25 00:16:01;;;;;;;4.03;1.63;;;12.30;99.90;;;;;;6071390;23;20535;-71
2023/09/25 00:18:28;;;;;;;3.07;1.70;;;12.30;99.90;;;;;;6071470;23;20395;-70
2023/09/25 00:20:54;;;;;;;2.37;1.70;;;12.30;99.90;;;;;;6072038;23;20176;-72
2023/09/25 00:23:20;;;;;;;3.13;1.73;;;12.30;99.90;;;;;;6070746;23;20425;-69
2023/09/25 00:25:45;;;;;;;2.87;2.20;;;12.20;99.90;;;;;;6069718;23;20152;-71
2023/09/25 00:28:11;;;;;;;2.93;1.83;;;12.20;99.90;;;;;;6071633;23;20169;-71
2023/09/25 00:30:38;;;;;;;2.10;1.53;;;12.10;99.90;;;;;;6071510;23;20137;-71
2023/09/25 00:33:03;;;;;;;5.90;2.50;;;12.10;99.90;;;;;;6070552;23;20406;-71
2023/09/25 00:35:29;;;;;;;3.40;1.90;;;12.10;99.90;;;;;;6071831;23;20157;-70
2023/09/25 00:37:54;;;;;;;3.23;1.60;;;12.00;99.90;;;;;;6094935;23;20539;-70
2023/09/25 00:40:24;;;;;;;2.30;2.00;;;12.00;99.90;;;;;;6071411;23;20140;-71
2023/09/25 00:42:53;;;;;;;2.30;1.60;;;12.00;99.90;;;;;;6068570;23;20153;-72
2023/09/25 00:45:21;;;;;;;5.40;2.20;;;11.90;99.90;;;;;;6070994;23;20584;-71
2023/09/25 00:47:48;;;;;;;3.53;2.20;;;12.00;99.90;;;;;;6070966;23;20358;-71
2023/09/25 00:50:13;;;;;;;4.97;2.10;;;12.00;99.90;;;;;;6070822;23;21050;-70
2023/09/25 00:52:42;;;;;;;3.60;1.23;;;12.00;99.90;;;;;;6070670;23;20361;-70
2023/09/25 00:55:10;;;;;;;3.10;2.00;;;12.10;99.90;;;;;;6071255;23;20150;-69
2023/09/25 00:57:38;;;;;;;3.57;1.77;;;12.00;99.90;;;;;;6070586;23;20759;-71
2023/09/25 01:00:10;;;;;;;5.10;1.63;;;12.00;99.90;;;;;;6071264;23;20412;-69
2023/09/25 01:02:36;;;;;;;2.67;1.80;;;12.00;99.90;;;;;;6093206;23;20655;-71
2023/09/25 01:05:03;;;;;;;6.70;2.03;;;12.00;99.90;;;;;;6069358;23;20500;-71
2023/09/25 01:07:29;;;;;;;4.80;2.20;;;12.10;99.90;;;;;;6070297;23;20369;-71
2023/09/25 01:10:17;;;;;;;4.43;1.60;;;12.10;99.90;;;;;;6070937;23;20453;-71
2023/09/25 01:12:47;;;;;;;3.40;2.00;;;12.10;99.90;;;;;;6069995;23;20129;-71
2023/09/25 01:15:14;;;;;;;1.87;1.40;;;12.00;99.90;;;;;;6071664;23;20377;-70
2023/09/25 01:17:43;;;;;;;3.30;1.90;;;11.90;99.90;;;;;;6070508;23;20440;-70
2023/09/25 01:20:12;;;;;;;2.73;2.00;;;11.90;99.90;;;;;;6070061;23;20482;-71
2023/09/25 01:22:39;;;;;;;3.13;1.90;;;11.90;99.90;;;;;;6068547;23;20384;-71
2023/09/25 01:25:06;;;;;;;4.27;2.10;;;11.90;99.90;;;;;;6069539;23;20559;-70
2023/09/25 01:27:32;;;;;;;2.50;2.03;;;11.90;99.90;;;;;;6071532;23;20437;-70
2023/09/25 01:29:57;;;;;;;4.40;2.20;;;11.90;99.90;;;;;;6071397;23;20362;-71
2023/09/25 01:32:23;;;;;;;2.83;1.70;;;11.90;99.90;;;;;;6093583;23;20193;-70
2023/09/25 01:34:51;;;;;;;3.73;2.13;;;11.80;99.90;;;;;;6070673;23;20245;-70
2023/09/25 01:37:17;;;;;;;2.10;1.90;;;11.80;99.90;;;;;;6070794;23;20370;-71
2023/09/25 01:39:42;;;;;;;2.10;1.70;;;11.80;99.90;;;;;;6075474;23;20407;-72
2023/09/25 01:42:08;;;;;;;3.43;2.10;;;11.80;99.90;;;;;;6099583;23;20231;-71
2023/09/25 01:44:33;;;;;;;2.30;1.90;;;11.80;99.90;;;;;;6078582;23;20263;-72
2023/09/25 01:46:59;;;;;;;3.90;2.20;;;11.80;99.90;;;;;;6078731;23;20171;-72
2023/09/25 01:49:24;;;;;;;3.13;1.90;;;11.70;99.90;;;;;;6078219;23;20204;-71
2023/09/25 01:51:50;;;;;;;4.00;1.90;;;11.70;99.90;;;;;;6076917;23;20501;-72
2023/09/25 01:54:16;;;;;;;2.37;1.77;;;11.70;99.90;;;;;;6098495;23;20180;-71
2023/09/25 01:56:44;;;;;;;4.67;1.80;;;11.70;99.90;;;;;;6075043;23;20139;-70
2023/09/25 01:59:09;;;;;;;2.83;2.00;;;11.80;99.90;;;;;;6072876;23;20168;-69
2023/09/25 02:01:36;;;;;;;4.07;1.93;;;11.80;99.90;;;;;;6094880;23;20368;-69
2023/09/25 02:04:01;;;;;;;2.43;1.50;;;11.80;99.90;;;;;;6072093;23;20209;-69
2023/09/25 02:06:27;;;;;;;2.80;1.80;;;11.80;99.90;;;;;;6071307;23;20655;-70
2023/09/25 02:08:52;;;;;;;3.03;1.80;;;11.80;99.90;;;;;;6095238;23;20188;-70
2023/09/25 02:11:18;;;;;;;2.57;1.50;;;11.80;99.90;;;;;;6094553;23;20467;-70
2023/09/25 02:13:43;;;;;;;2.63;1.90;;;11.80;99.90;;;;;;6070699;23;20179;-71
2023/09/25 02:16:09;;;;;;;1.87;1.40;;;11.80;99.90;;;;;;6072640;23;20141;-71
2023/09/25 02:18:35;;;;;;;3.43;1.93;;;11.70;99.90;;;;;;6072663;23;20143;-70
2023/09/25 02:21:03;;;;;;;1.90;1.30;;;11.70;99.90;;;;;;6094504;23;20161;-70
2023/09/25 02:23:29;;;;;;;2.80;1.40;;;11.60;99.90;;;;;;6074224;23;20177;-70
2023/09/25 02:25:56;;;;;;;1.90;1.33;;;11.60;99.90;;;;;;6072812;23;20433;-71
2023/09/25 02:28:21;;;;;;;1.87;1.67;;;11.60;99.90;;;;;;6072360;23;20771;-71
2023/09/25 02:30:47;;;;;;;4.63;1.33;;;11.60;99.90;;;;;;6072988;23;20161;-71
2023/09/25 02:33:12;;;;;;;2.93;1.50;;;11.50;99.90;;;;;;6071692;23;20225;-70
2023/09/25 02:35:38;;;;;;;2.00;1.70;;;11.50;99.90;;;;;;6070188;23;20144;-69
2023/09/25 02:38:05;;;;;;;2.37;1.50;;;11.40;99.90;;;;;;6072005;23;20137;-71
2023/09/25 02:40:31;;;;;;;2.67;1.70;;;11.40;99.90;;;;;;6072896;23;20522;-71
2023/09/25 02:42:56;;;;;;;4.60;1.67;;;11.40;99.90;;;;;;6070436;23;20421;-70
2023/09/25 02:45:22;;;;;;;1.93;1.53;;;11.30;99.90;;;;;;6073334;23;20707;-70
2023/09/25 02:47:47;;;;;;;2.43;1.40;;;11.20;99.90;;;;;;6095264;23;20149;-69
2023/09/25 02:50:14;;;;;;;2.23;1.70;;;11.20;99.90;;;;;;6073956;23;20165;-70
2023/09/25 02:52:42;;;;;;;4.13;1.53;;;11.20;99.90;;;;;;6072763;23;20228;-71
2023/09/25 02:55:12;;;;;;;3.90;2.00;;;11.30;99.90;;;;;;6072803;23;20353;-71
2023/09/25 02:57:37;;;;;;;3.50;1.80;;;11.20;99.90;;;;;;6070850;23;20400;-70
2023/09/25 03:00:10;;;;;;;1.60;1.50;;;11.20;99.90;;;;;;6071522;23;20669;-69
2023/09/25 03:02:35;;;;;;;2.63;2.40;;;11.20;99.90;;;;;;6072813;23;20144;-70
2023/09/25 03:05:01;;;;;;;2.23;1.40;;;11.20;99.90;;;;;;6071778;23;20508;-71
2023/09/25 03:07:27;;;;;;;2.37;1.73;;;11.20;99.90;;;;;;6071951;23;20140;-72
2023/09/25 03:09:53;;;;;;;1.80;1.50;;;11.20;99.90;;;;;;6070554;23;20185;-70
2023/09/25 03:12:19;;;;;;;2.93;2.00;;;11.10;99.90;;;;;;6069524;23;20212;-71
2023/09/25 03:14:44;;;;;;;2.40;1.73;;;11.20;99.90;;;;;;6072184;23;20252;-71
2023/09/25 03:17:10;;;;;;;6.73;1.63;;;11.20;99.90;;;;;;6071017;23;20768;-71
2023/09/25 03:19:39;;;;;;;2.33;1.77;;;11.20;99.90;;;;;;6071067;23;20277;-71
2023/09/25 03:22:04;;;;;;;2.40;1.80;;;11.20;99.90;;;;;;6070578;23;20644;-73
2023/09/25 03:24:31;;;;;;;2.30;1.73;;;11.20;99.90;;;;;;6069831;23;20444;-72
2023/09/25 03:26:56;;;;;;;2.33;1.87;;;11.20;99.90;;;;;;6070010;23;20142;-71
2023/09/25 03:29:22;;;;;;;2.70;2.00;;;11.20;99.90;;;;;;6070105;23;20389;-70
2023/09/25 03:31:47;;;;;;;2.50;1.43;;;11.20;99.90;;;;;;6069850;23;20186;-71
2023/09/25 03:34:14;;;;;;;2.80;1.63;;;11.20;99.90;;;;;;6069322;23;20177;-71
2023/09/25 03:36:39;;;;;;;2.90;1.40;;;11.10;99.90;;;;;;6047611;23;20461;-72
2023/09/25 03:39:08;;;;;;;2.83;1.93;;;11.10;99.90;;;;;;6093900;23;20149;-71
2023/09/25 03:41:34;;;;;;;2.10;1.80;;;11.10;99.90;;;;;;6070219;23;20295;-71
2023/09/25 03:44:00;;;;;;;2.03;1.40;;;11.10;99.90;;;;;;6073916;23;20421;-71
2023/09/25 03:46:27;;;;;;;3.70;1.53;;;11.10;99.90;;;;;;6073935;23;20431;-73
2023/09/25 03:48:53;;;;;;;1.97;1.60;;;11.10;99.90;;;;;;6075573;23;20490;-71
2023/09/25 03:51:19;;;;;;;3.50;1.87;;;11.20;99.90;;;;;;6074710;23;20407;-71
2023/09/25 03:53:44;;;;;;;4.77;2.10;;;11.10;99.90;;;;;;6072484;23;20170;-72
2023/09/25 03:56:10;;;;;;;2.57;1.40;;;11.20;99.90;;;;;;6073596;23;20138;-71
2023/09/25 03:58:35;;;;;;;2.63;1.63;;;11.20;99.90;;;;;;6073828;23;20137;-72
2023/09/25 04:01:01;;;;;;;4.00;1.70;;;11.20;99.90;;;;;;6073465;23;20142;-72
2023/09/25 04:03:26;;;;;;;2.83;1.77;;;11.10;99.90;;;;;;6071400;23;20169;-70
2023/09/25 04:05:52;;;;;;;4.27;1.50;;;11.10;99.90;;;;;;6073843;23;20141;-72
2023/09/25 04:08:18;;;;;;;2.30;1.63;;;11.10;99.90;;;;;;6073517;23;20134;-71
2023/09/25 04:10:43;;;;;;;2.03;1.53;;;11.10;99.90;;;;;;6069247;23;20189;-70
2023/09/25 04:13:10;;;;;;;2.10;1.50;;;11.10;99.90;;;;;;6069959;23;20162;-70
2023/09/25 04:15:37;;;;;;;3.10;1.90;;;11.10;99.90;;;;;;6069372;23;20186;-71
2023/09/25 04:18:06;;;;;;;2.07;1.60;;;11.10;99.90;;;;;;6069843;23;20445;-71
2023/09/25 04:20:32;;;;;;;2.80;1.70;;;11.10;99.90;;;;;;6071090;23;20417;-70
2023/09/25 04:22:58;;;;;;;3.80;1.90;;;11.10;99.90;;;;;;6070550;23;20365;-71
2023/09/25 04:25:24;;;;;;;1.90;1.60;;;11.00;99.90;;;;;;6074373;23;20406;-75
2023/09/25 04:27:54;;;;;;;2.10;1.57;;;11.00;99.90;;;;;;6076988;23;20194;-71
2023/09/25 04:30:21;;;;;;;2.10;1.80;;;11.00;99.90;;;;;;6078040;23;20850;-71
2023/09/25 04:32:49;;;;;;;2.37;2.13;;;11.00;99.90;;;;;;6081795;23;20490;-71
2023/09/25 04:35:15;;;;;;;3.73;1.83;;;11.10;99.90;;;;;;6079382;23;20417;-72
2023/09/25 04:37:42;;;;;;;1.67;1.50;;;11.10;99.90;;;;;;6079213;23;20373;-72
2023/09/25 04:40:22;;;;;;;4.13;2.40;;;11.10;99.90;;;;;;6080315;23;20397;-71
2023/09/25 04:42:52;;;;;;;2.53;1.97;;;11.10;99.90;;;;;;6073598;23;20380;-72
2023/09/25 04:45:19;;;;;;;2.23;2.03;;;11.10;99.90;;;;;;6074833;23;20416;-71
2023/09/25 04:47:45;;;;;;;2.43;1.80;;;11.20;99.90;;;;;;6081422;23;20353;-73
2023/09/25 04:50:11;;;;;;;2.67;2.00;;;11.20;99.90;;;;;;6078006;23;20433;-72
2023/09/25 04:52:40;;;;;;;1.73;1.30;;;11.20;99.90;;;;;;6075166;23;20370;-70
2023/09/25 04:55:07;;;;;;;2.13;1.80;;;11.10;99.90;;;;;;6075735;23;20159;-72
2023/09/25 04:57:36;;;;;;;2.53;1.87;;;11.20;99.90;;;;;;6079605;23;20366;-75
2023/09/25 05:00:16;;;;;;;4.70;2.40;;;11.10;99.90;;;;;;6105619;23;20370;-72
2023/09/25 05:02:45;;;;;;;3.97;2.20;;;11.20;99.90;;;;;;6081288;23;20366;-73
2023/09/25 05:05:11;;;;;;;6.10;2.70;;;11.20;99.90;;;;;;6080258;23;20413;-73
2023/09/25 05:07:37;;;;;;;4.43;2.47;;;11.20;99.90;;;;;;6080312;23;20362;-73
2023/09/25 05:10:04;;;;;;;4.10;2.30;;;11.20;99.90;;;;;;6079106;23;20698;-72
2023/09/25 05:12:29;;;;;;;2.70;1.90;;;11.20;99.90;;;;;;6081384;23;20146;-73
2023/09/25 05:14:55;;;;;;;6.60;2.67;;;11.20;99.90;;;;;;6080970;23;20398;-73
2023/09/25 05:17:21;;;;;;;2.50;1.70;;;11.20;99.90;;;;;;6080885;23;20240;-73
2023/09/25 05:19:46;;;;;;;4.40;1.90;;;11.20;99.90;;;;;;6081017;23;20204;-72
2023/09/25 05:22:12;;;;;;;3.70;2.00;;;11.20;99.90;;;;;;6081684;23;20138;-74
2023/09/25 05:24:38;;;;;;;4.50;2.00;;;11.20;99.90;;;;;;6083106;23;20177;-74
2023/09/25 05:27:05;;;;;;;3.63;2.50;;;11.20;99.90;;;;;;6080263;23;20392;-71
2023/09/25 05:29:36;;;;;;;3.60;2.10;;;11.20;99.90;;;;;;6083970;23;20157;-73
2023/09/25 05:32:04;;;;;;;4.20;3.80;;;11.20;99.90;;;;;;6079477;23;20397;-74
2023/09/25 05:34:30;;;;;;;3.50;2.27;;;11.20;99.90;;;;;;6058351;23;20404;-76
2023/09/25 05:36:56;;;;;;;6.70;2.30;;;11.20;99.90;;;;;;6082605;23;20374;-72
2023/09/25 05:39:25;;;;;;;4.43;2.47;;;11.20;99.90;;;;;;6080162;23;20370;-75
2023/09/25 05:41:51;;;;;;;3.83;2.63;;;11.20;99.90;;;;;;6084284;23;20178;-74
2023/09/25 05:44:17;;;;;;;3.90;2.07;;;11.20;99.90;;;;;;6081910;23;20432;-72
2023/09/25 05:46:42;;;;;;;5.10;2.77;;;11.30;99.90;;;;;;6081991;23;20365;-75
2023/09/25 05:49:09;;;;;;;5.33;3.03;;;11.30;99.90;;;;;;6082347;23;20169;-73
2023/09/25 05:51:35;;;;;;;4.53;2.90;;;11.40;99.90;;;;;;6082784;23;20209;-74
2023/09/25 05:54:01;;;;;;;3.37;2.40;;;11.40;99.90;;;;;;6081545;23;20400;-75
2023/09/25 05:56:28;;;;;;;3.97;2.60;;;11.50;99.90;;;;;;6104412;23;20389;-74
2023/09/25 05:58:54;;;;;;;3.73;2.30;;;11.50;99.90;;;;;;6080677;23;20160;-73
2023/09/25 06:01:19;;;;;;;4.50;2.07;;;11.50;99.90;;;;;;6058017;23;20779;-75
2023/09/25 06:03:47;;;;;;;3.40;2.70;;;11.50;99.90;;;;;;6083561;23;20188;-74
2023/09/25 06:06:13;;;;;;;4.80;2.30;;;11.60;99.90;;;;;;6085282;23;20138;-73
2023/09/25 06:08:38;;;;;;;4.27;2.43;;;11.60;99.90;;;;;;6108832;23;20396;-75
2023/09/25 06:11:05;;;;;;;3.87;2.00;;;11.70;99.90;;;;;;6084199;23;20210;-74
2023/09/25 06:13:30;;;;;;;3.10;2.40;;;11.80;99.90;;;;;;6083518;23;20169;-74
2023/09/25 06:15:57;;;;;;;4.60;2.90;;;11.80;99.90;;;;;;6085396;23;20452;-74
2023/09/25 06:18:26;;;;;;;2.87;2.30;;;11.80;99.90;;;;;;6106964;23;20138;-73
2023/09/25 06:20:54;;;;;;;6.00;2.53;;;11.90;99.90;;;;;;6084729;23;20381;-75
2023/09/25 06:23:22;;;;;;;3.30;2.20;;;12.00;99.90;;;;;;6086047;23;20402;-74
2023/09/25 06:25:47;;;;;;;2.50;2.10;;;12.00;99.90;;;;;;6088893;23;20389;-76
2023/09/25 06:28:14;;;;;;;2.83;2.20;;;12.10;99.90;;;;;;6087216;23;20193;-76
2023/09/25 06:30:41;;;;;;;8.40;4.97;;;12.20;99.90;;;;;;6061752;23;20543;-74
2023/09/25 06:33:07;;;;;;;4.90;1.90;;;12.20;99.90;;;;;;6109248;23;20401;-74
2023/09/25 06:35:35;;;;;;;3.23;2.83;;;12.30;99.90;;;;;;6085091;23;20373;-73
2023/09/25 06:38:00;;;;;;;4.73;3.03;;;12.40;99.90;;;;;;6086054;23;20150;-75
2023/09/25 06:40:26;;;;;;;2.77;2.23;;;12.50;99.90;;;;;;6086156;23;20369;-74
2023/09/25 06:42:56;;;;;;;3.10;2.20;;;12.50;99.90;;;;;;6086086;23;20399;-73
2023/09/25 06:45:22;;;;;;;3.70;2.20;;;12.70;99.90;;;;;;6060419;23;20161;-73
2023/09/25 06:47:48;;;;;;;4.20;2.10;;;12.70;99.90;;;;;;6108218;23;20392;-74
2023/09/25 06:50:17;;;;;;;2.10;1.73;;;12.80;99.90;;;;;;6088198;23;20144;-76
2023/09/25 06:52:42;;;;;;;2.90;1.77;;;12.90;99.90;;;;;;6089657;23;20137;-75
2023/09/25 06:55:09;;;;;;;1.90;1.70;;;13.00;99.90;;;;;;6087437;23;20384;-75
2023/09/25 06:57:35;;;;;;;3.57;2.13;;;13.00;99.90;;;;;;6083345;23;20160;-73
2023/09/25 07:00:01;;;;;;;2.97;1.73;;;13.10;99.90;;;;;;6083730;23;20388;-74
2023/09/25 07:02:27;;;;;;;2.77;1.70;;;13.20;99.90;;;;;;6060458;23;20425;-73
2023/09/25 07:04:52;;;;;;;2.70;2.07;;;13.30;99.90;;;;;;6084841;23;20183;-74
2023/09/25 07:07:18;;;;;;;3.33;1.60;;;13.30;99.90;;;;;;6082320;23;20138;-73
2023/09/25 07:09:44;;;;;;;2.57;1.90;;;13.40;99.90;;;;;;6083917;23;20188;-72
2023/09/25 07:12:14;;;;;;;3.00;1.97;;;13.50;99.90;;;;;;6061021;23;20150;-71
2023/09/25 07:14:40;;;;;;;2.20;1.50;;;13.60;99.90;;;;;;6087134;23;20548;-74
2023/09/25 07:17:06;;;;;;;3.03;2.00;;;13.70;99.90;;;;;;6041444;23;20375;-76
2023/09/25 07:19:32;;;;;;;4.13;2.07;;;13.80;99.90;;;;;;6113438;23;20657;-75
2023/09/25 07:21:58;;;;;;;3.00;1.67;;;13.90;99.90;;;;;;6063222;23;20374;-75
2023/09/25 07:24:23;;;;;;;2.90;1.77;;;14.00;99.90;;;;;;6087112;23;20192;-73
2023/09/25 07:26:49;;;;;;;2.87;1.87;;;14.10;99.90;;;;;;6084682;23;20202;-75
2023/09/25 07:29:17;;;;;;;1.90;1.43;;;14.10;99.90;;;;;;6063771;23;20129;-74
2023/09/25 07:31:43;;;;;;;3.97;1.70;;;14.10;99.90;;;;;;6085039;23;20149;-74
2023/09/25 07:34:12;;;;;;;1.87;1.43;;;14.10;99.90;;;;;;6088076;23;20460;-74
2023/09/25 07:36:39;;;;;;;2.80;1.87;;;14.20;99.90;;;;;;6088490;23;20377;-72
2023/09/25 07:39:13;;;;;;;3.83;2.10;;;14.20;99.90;;;;;;6060090;23;20758;-73
2023/09/25 07:41:40;;;;;;;2.37;1.73;;;14.20;99.90;;;;;;6058814;23;20507;-73
2023/09/25 07:44:11;;;;;;;2.53;1.40;;;14.30;99.90;;;;;;6085195;23;20423;-74
2023/09/25 07:46:38;;;;;;;2.60;1.67;;;14.30;99.90;;;;;;6087810;23;20441;-74
2023/09/25 07:49:03;;;;;;;2.20;1.60;;;14.40;99.90;;;;;;6087465;23;20380;-75
2023/09/25 07:51:29;;;;;;;2.47;1.70;;;14.50;99.90;;;;;;6088398;23;20385;-74
2023/09/25 07:53:58;;;;;;;4.57;2.80;;;14.60;99.90;;;;;;6085262;23;20196;-72
2023/09/25 07:56:24;;;;;;;2.40;1.93;;;14.70;99.90;;;;;;6085356;23;20182;-75
2023/09/25 07:58:50;;;;;;;2.60;2.10;;;14.80;99.90;;;;;;6061563;23;20456;-73
2023/09/25 08:01:16;;;;;;;3.43;1.87;;;14.90;99.90;;;;;;6061630;23;20423;-75
2023/09/25 08:03:43;;;;;;;2.70;2.00;;;15.00;99.90;;;;;;6084871;23;20173;-74
2023/09/25 08:06:11;;;;;;;5.73;2.47;;;15.00;99.90;;;;;;6085334;23;20373;-74
2023/09/25 08:08:37;;;;;;;3.10;2.17;;;15.20;99.90;;;;;;6108963;23;20390;-74
2023/09/25 08:11:04;;;;;;;2.10;1.50;;;15.20;98.50;;;;;;6082570;23;20413;-72
2023/09/25 08:13:30;;;;;;;3.47;1.73;;;15.40;98.00;;;;;;6084891;23;20392;-70
2023/09/25 08:16:06;;;;;;;7.93;2.20;;;15.50;97.40;;;;;;6086013;23;20169;-72
2023/09/25 08:18:32;;;;;;;1.97;1.67;;;15.60;94.30;;;;;;6039128;23;20365;-72
2023/09/25 08:21:04;;;;;;;2.10;1.63;;;15.70;94.10;;;;;;6062585;23;20386;-74
2023/09/25 08:23:30;;;;;;;3.00;1.70;;;15.80;93.50;;;;;;6086009;23;20417;-72
2023/09/25 08:25:57;;;;;;;3.53;1.87;;;15.90;92.30;;;;;;6088549;23;20369;-70
2023/09/25 08:28:24;;;;;;;3.20;2.00;;;16.00;90.50;;;;;;6088717;23;20157;-78
2023/09/25 08:30:50;;;;;;;6.13;2.03;;;16.10;89.10;;;;;;6091144;23;20477;-76
2023/09/25 08:33:17;;;;;;;3.20;1.70;;;16.10;87.70;;;;;;6088474;23;20379;-75
2023/09/25 08:35:44;;;;;;;2.53;1.43;;;16.20;87.70;;;;;;6041503;23;20418;-75
2023/09/25 08:38:10;;;;;;;2.30;1.87;;;16.30;85.90;;;;;;6044288;23;20133;-74
2023/09/25 08:40:50;;;;;;;2.47;1.43;;;16.40;85.00;;;;;;6091208;23;20486;-77
2023/09/25 08:43:22;;;;;;;2.50;1.67;;;16.40;84.00;;;;;;6038825;23;20427;-77
2023/09/25 08:45:58;;;;;;;4.00;2.20;;;16.50;83.60;;;;;;6062369;23;20378;-77
2023/09/25 08:48:32;;;;;;;2.07;1.63;;;16.60;83.30;;;;;;5992722;23;20404;-77
2023/09/25 08:51:02;;;;;;;2.57;1.77;;;16.60;81.20;;;;;;6038165;23;20397;-77
2023/09/25 08:53:32;;;;;;;3.43;2.03;;;16.70;80.60;;;;;;6038993;23;20414;-75
2023/09/25 08:56:00;;;;;;;2.50;1.70;;;16.80;79.80;;;;;;6060383;23;20350;-75
2023/09/25 08:58:26;;;;;;;2.90;1.90;;;16.80;79.60;;;;;;6038394;23;20470;-77
2023/09/25 09:00:53;;;;;;;3.77;1.83;;;16.90;79.10;;;;;;6034215;23;20153;-76
2023/09/25 09:03:23;;;;;;;4.03;1.73;;;17.00;77.90;;;;;;6011730;23;20415;-77
2023/09/25 09:05:49;;;;;;;2.77;1.60;;;17.10;78.00;;;;;;6031790;23;20450;-75
2023/09/25 09:08:17;;;;;;;2.70;1.70;;;17.20;77.60;;;;;;6032930;23;20397;-78
2023/09/25 09:10:45;;;;;;;4.30;2.27;;;17.20;75.70;;;;;;6007312;23;20434;-74
2023/09/25 09:13:12;;;;;;;1.70;1.60;;;17.30;75.80;;;;;;6028976;23;20422;-74
2023/09/25 09:15:40;;;;;;;2.67;2.33;;;17.40;75.70;;;;;;6124980;23;20421;-77
2023/09/25 09:18:21;;;;;;;3.47;2.10;;;17.50;73.20;;;;;;6149183;23;20148;-76
2023/09/25 09:20:48;;;;;;;4.63;2.07;;;17.50;73.00;;;;;;6125008;23;20373;-76
2023/09/25 09:23:16;;;;;;;3.57;2.10;;;17.50;72.50;;;;;;6123304;23;20454;-79
2023/09/25 09:25:48;;;;;;;6.60;2.00;;;17.60;72.50;;;;;;6131486;23;20449;-78
2023/09/25 09:28:14;;;;;;;3.77;2.10;;;17.60;71.40;;;;;;6095657;23;20392;-75
2023/09/25 09:30:43;;;;;;;2.80;1.83;;;17.60;71.10;;;;;;6095423;23;20410;-77
2023/09/25 09:33:09;;;;;;;4.27;2.10;;;17.60;70.60;;;;;;6093593;23;20402;-77
2023/09/25 09:35:37;;;;;;;3.43;1.87;;;17.60;71.20;;;;;;6070057;23;20368;-79
2023/09/25 09:38:08;;;;;;;3.00;1.90;;;17.70;71.50;;;;;;6096466;23;20375;-76
2023/09/25 09:40:36;;;;;;;9.13;2.90;;;17.70;71.30;;;;;;6093273;23;20387;-77
2023/09/25 09:43:04;;;;;;;4.60;2.17;;;17.80;71.10;;;;;;6096372;23;20459;-74
2023/09/25 09:45:31;;;;;;;3.70;2.30;;;17.90;71.30;;;;;;6094166;23;20431;-77
2023/09/25 09:47:59;;;;;;;2.47;1.67;;;18.00;71.00;;;;;;6094414;23;20384;-78
2023/09/25 09:50:31;;;;;;;4.20;2.53;;;18.20;69.30;;;;;;6098130;23;20510;-79
2023/09/25 09:52:59;;;;;;;2.67;2.07;;;18.20;67.00;;;;;;6096679;23;20407;-76
2023/09/25 09:55:31;;;;;;;6.00;2.13;;;18.20;65.70;;;;;;6095504;23;20415;-78
2023/09/25 09:57:57;;;;;;;2.80;1.57;;;18.20;65.30;;;;;;6094604;23;20389;-75
2023/09/25 10:00:23;;;;;;;5.63;1.80;;;18.30;65.50;;;;;;6068880;23;20423;-77
2023/09/25 10:02:51;;;;;;;2.40;1.70;;;18.30;64.80;;;;;;6095440;23;20380;-78
2023/09/25 10:05:32;;;;;;;3.03;2.20;;;18.40;64.40;;;;;;6096582;23;20424;-78
2023/09/25 10:08:09;;;;;;;2.53;2.17;;;18.40;63.20;;;;;;6099174;23;20463;-79
2023/09/25 10:10:38;;;;;;;2.90;1.80;;;18.40;62.80;;;;;;6072639;23;20371;-79
2023/09/25 10:13:28;;;;;;;3.30;1.90;;;18.50;62.40;;;;;;6105765;23;20423;-77
2023/09/25 10:16:12;;;;;;;4.40;1.50;;;18.60;62.50;;;;;;6063965;23;20413;-79
2023/09/25 10:18:46;;;;;;;2.30;1.37;;;18.70;61.60;;;;;;6040904;23;20381;-77
2023/09/25 10:21:16;;;;;;;3.20;1.63;;;18.70;62.00;;;;;;6036830;23;20386;-77
2023/09/25 10:23:50;;;;;;;5.33;3.30;;;18.80;62.10;;;;;;6036364;23;20417;-75
2023/09/25 10:26:21;;;;;;;4.73;2.20;;;18.80;60.90;;;;;;6062404;23;20357;-77
2023/09/25 10:28:58;;;;;;;2.50;1.60;;;18.80;59.30;;;;;;6018160;23;20389;-77
2023/09/25 10:31:31;;;;;;;3.17;1.80;;;18.90;58.70;;;;;;6041727;23;20370;-78
2023/09/25 10:36:50;;;;;;;3.23;1.80;;;19.10;58.20;;;;;;6151378;23;20416;-78
2023/09/25 10:39:35;;;;;;;4.20;2.27;;;19.20;57.90;;;;;;6152567;23;20437;-79
2023/09/25 10:42:09;;;;;;;4.33;1.83;;;19.30;58.10;;;;;;6101743;23;20416;-78
2023/09/25 10:44:36;;;;;;;2.33;1.47;;;19.30;58.40;;;;;;6149756;23;20507;-77
2023/09/25 10:47:12;;;;;;;4.50;1.80;;;19.40;58.30;;;;;;6176428;23;20395;-78
2023/09/25 10:49:39;;;;;;;2.20;1.53;;;19.60;58.30;;;;;;6079347;23;20387;-77
2023/09/25 10:52:29;;;;;;;2.10;1.47;;;19.70;56.30;;;;;;6151809;23;20356;-79
2023/09/25 10:57:34;;;;;;;4.37;1.93;;;19.70;54.60;;;;;;6103566;23;20427;-77
2023/09/25 11:00:21;;;;;;;2.90;1.77;;;19.90;53.50;;;;;;6129007;23;20459;-78
2023/09/25 11:07:02;;;;;;;2.40;1.33;;;20.10;51.70;;;;;;6127680;23;20443;-77
2023/09/25 11:20:33;;;;;;;2.23;1.70;;;20.40;49.60;;;;;;6143650;23;20431;-77
2023/09/25 11:23:04;;;;;;;1.97;1.47;;;20.50;49.70;;;;;;6111976;23;20470;-78
2023/09/25 11:25:39;;;;;;;3.80;1.70;;;20.50;50.00;;;;;;6103249;23;20407;-78
2023/09/25 11:28:22;;;;;;;1.90;1.70;;;20.60;49.20;;;;;;6127855;23;20394;-77
2023/09/25 11:30:49;;;;;;;2.87;1.67;;;20.60;48.80;;;;;;6128520;23;20388;-78
2023/09/25 11:36:00;;;;;;;1.70;1.23;;;20.70;49.10;;;;;;6122422;23;20450;-78
2023/09/25 11:41:38;;;;;;;2.33;1.70;;;20.90;49.40;;;;;;6153668;23;20419;-78
2023/09/25 12:02:58;;;;;;;3.85;1.55;;;21.00;48.20;;;;;;6132753;23;20543;31
2023/09/25 12:41:34;;;;;;;2.17;1.67;;;21.40;48.70;;;;;;6150444;23;20466;-78
2023/09/25 12:44:32;;;;;;;1.70;1.30;;;21.40;48.90;;;;;;6123097;23;20459;-78
2023/09/25 12:47:02;;;;;;;2.03;1.30;;;21.50;48.90;;;;;;6091830;23;20413;-77
2023/09/25 12:49:52;;;;;;;3.27;1.70;;;21.60;48.40;;;;;;6093911;23;20461;-78
2023/09/25 12:52:54;;;;;;;2.50;1.50;;;21.60;48.60;;;;;;6020763;23;20395;-78
2023/09/25 12:55:41;;;;;;;1.97;1.57;;;21.60;48.70;;;;;;6051363;23;20374;-77
2023/09/25 12:58:09;;;;;;;3.23;2.07;;;21.70;48.50;;;;;;6044129;23;20382;-77
2023/09/25 13:01:24;;;;;;;2.03;1.60;;;21.70;48.50;;;;;;6090239;23;20477;-76
2023/09/25 13:04:02;;;;;;;3.30;2.00;;;21.70;47.90;;;;;;6067608;23;20463;-78
2023/09/25 13:06:35;;;;;;;2.90;1.90;;;21.70;48.20;;;;;;6091179;23;20469;-77
2023/09/25 13:09:26;;;;;;;1.80;1.27;;;21.80;48.00;;;;;;6042789;23;20373;-77
2023/09/25 13:12:08;;;;;;;2.80;1.90;;;21.90;48.00;;;;;;6068624;23;20362;-77
2023/09/25 13:14:35;;;;;;;2.70;1.90;;;22.00;48.10;;;;;;6044982;23;20425;-77
2023/09/25 13:17:24;;;;;;;2.90;1.83;;;22.10;48.30;;;;;;6020179;23;20381;-78
2023/09/25 13:40:23;;;;;;;6.70;2.17;;;22.30;48.10;;;;;;6142561;23;20541;-78
2023/09/25 13:46:16;;;;;;;2.63;1.47;;;22.20;47.90;;;;;;6137377;23;20481;-76
2023/09/25 13:48:47;;;;;;;2.63;1.80;;;22.10;48.50;;;;;;6100941;23;20408;-78
2023/09/25 13:51:18;;;;;;;3.20;1.70;;;22.00;48.20;;;;;;6126588;23;20415;-79
2023/09/25 13:53:45;;;;;;;1.80;1.10;;;21.90;48.40;;;;;;6148673;23;20847;-75
2023/09/25 13:56:11;;;;;;;3.47;1.80;;;21.80;48.30;;;;;;6145753;23;20372;-75
2023/09/25 13:58:37;;;;;;;2.20;1.77;;;21.80;48.10;;;;;;6150699;23;20199;-76
2023/09/25 14:01:05;;;;;;;3.00;1.87;;;21.80;47.60;;;;;;6180050;23;20362;-76
2023/09/25 14:03:34;;;;;;;3.33;1.90;;;21.80;48.10;;;;;;6126951;23;20152;-78
2023/09/25 14:06:05;;;;;;;3.43;1.87;;;21.70;48.50;;;;;;6122150;23;20395;-78
2023/09/25 14:17:14;;;;;;;4.07;1.73;;;21.60;49.50;;;;;;6157568;23;20745;-78
2023/09/25 14:19:57;;;;;;;3.07;1.67;;;21.60;50.00;;;;;;6128660;23;20363;-78
2023/09/25 14:22:56;;;;;;;2.53;2.07;;;21.60;50.00;;;;;;6127732;23;20458;-79
2023/09/25 14:25:49;;;;;;;2.60;1.80;;;21.50;50.10;;;;;;6152755;23;20446;-78
2023/09/25 14:29:16;;;;;;;3.50;1.50;;;21.50;50.30;;;;;;6100729;23;21787;-76
2023/09/25 14:31:59;;;;;;;2.60;1.43;;;21.40;50.50;;;;;;6045022;23;20429;-78
2023/09/25 14:34:45;;;;;;;2.20;1.77;;;21.40;50.60;;;;;;6096742;23;20409;-78
2023/09/25 14:37:15;;;;;;;1.90;1.30;;;21.30;50.70;;;;;;6071364;23;20385;-78
2023/09/25 14:39:45;;;;;;;3.07;1.57;;;21.30;50.80;;;;;;6094428;23;20435;-78
2023/09/25 14:42:11;;;;;;;3.37;1.60;;;21.20;51.00;;;;;;6021488;23;20372;-78
2023/09/25 14:44:37;;;;;;;2.80;1.63;;;21.20;50.90;;;;;;6067737;23;20416;-78
2023/09/25 14:47:12;;;;;;;2.63;2.13;;;21.20;51.00;;;;;;6066100;23;20224;-77
2023/09/25 14:49:41;;;;;;;2.13;1.53;;;21.30;50.60;;;;;;6069179;23;20376;-76
2023/09/25 14:55:13;;;;;;;2.80;1.60;;;21.30;50.50;;;;;;6132886;23;20445;-76